Time;durP1;ratioP1;P1;durP2;ratioP2;P2;SDS_P1;SDS_P2;PMS_P1;PMS_P2;Temp;Humidity;BMP_temperature;BMP_pressure;BME280_temperature;BME280_humidity;BME280_pressure;Samples;Min_cycle;Max_cycle;Signal;HPM_P1;HPM_P2
2022/10/09 00:08:19;;;;;;;54.97;33.88;;;10.00;99.90;;;;;;20880115;28;20098;-54
2022/10/09 00:18:21;;;;;;;50.70;33.13;;;10.10;99.90;;;;;;20895621;28;20037;-53
2022/10/09 00:28:25;;;;;;;51.70;34.13;;;10.20;99.90;;;;;;20892299;28;20094;-51
2022/10/09 00:38:28;;;;;;;53.03;33.15;;;10.10;99.90;;;;;;20893765;28;20041;-52
2022/10/09 00:48:32;;;;;;;48.28;32.47;;;10.10;99.90;;;;;;20894491;28;20033;-60
2022/10/09 00:58:36;;;;;;;56.95;36.67;;;10.20;99.90;;;;;;20893433;28;20037;-54
2022/10/09 01:08:45;;;;;;;65.97;39.72;;;10.20;99.90;;;;;;20891649;28;20091;-52
2022/10/09 01:19:20;;;;;;;69.82;42.60;;;10.30;99.90;;;;;;20867894;28;20444;-60
2022/10/09 01:29:27;;;;;;;65.20;41.08;;;10.30;99.90;;;;;;20572924;28;20409;-53
2022/10/09 01:39:33;;;;;;;62.45;38.25;;;10.40;99.90;;;;;;20573514;28;20097;-50
2022/10/09 01:49:53;;;;;;;60.13;38.65;;;10.40;99.90;;;;;;20573002;28;20156;-53
2022/10/09 01:59:58;;;;;;;;;;;10.50;99.90;;;;;;20663376;28;20049;-52
2022/10/09 02:10:02;;;;;;;59.88;37.80;;;10.60;99.90;;;;;;20854683;28;19909;-60
2022/10/09 02:20:13;;;;;;;54.17;34.13;;;10.60;99.90;;;;;;20909229;28;20041;-50
2022/10/09 02:30:19;;;;;;;60.70;36.25;;;10.70;99.90;;;;;;20904056;28;20064;-55
2022/10/09 02:40:22;;;;;;;42.35;28.95;;;10.70;99.90;;;;;;20903644;28;20095;-54
2022/10/09 02:50:25;;;;;;;45.38;30.13;;;10.70;99.90;;;;;;20886341;28;20504;-53
2022/10/09 03:00:29;;;;;;;46.42;31.15;;;10.80;99.90;;;;;;20885801;28;20028;-52
2022/10/09 03:10:31;;;;;;;35.95;25.30;;;11.20;99.90;;;;;;20901658;28;20071;-54
2022/10/09 03:20:34;;;;;;;45.35;28.15;;;11.30;99.90;;;;;;20899867;28;20102;-54
2022/10/09 03:30:40;;;;;;;41.85;29.25;;;11.20;99.90;;;;;;20899230;28;20478;-52
2022/10/09 03:40:43;;;;;;;38.97;27.73;;;11.00;99.90;;;;;;20883259;28;20040;-55
2022/10/09 03:50:46;;;;;;;41.08;28.27;;;10.90;99.90;;;;;;20881843;28;20458;-60
2022/10/09 04:00:51;;;;;;;46.58;30.80;;;10.80;99.90;;;;;;20897153;28;20482;-53
2022/10/09 04:11:01;;;;;;;37.15;27.77;;;10.90;99.90;;;;;;20895886;28;20049;-53
2022/10/09 04:21:03;;;;;;;42.40;28.50;;;10.80;99.90;;;;;;20895410;28;20083;-52
2022/10/09 04:31:06;;;;;;;39.40;28.88;;;10.90;99.90;;;;;;20894786;28;20036;-50
2022/10/09 04:41:09;;;;;;;39.65;26.60;;;11.00;99.90;;;;;;20893327;28;20083;-50
2022/10/09 04:51:13;;;;;;;33.50;24.63;;;11.10;99.90;;;;;;20893899;28;20050;-49
2022/10/09 05:01:27;;;;;;;39.70;26.30;;;11.20;99.90;;;;;;20877222;28;20037;-54
2022/10/09 05:11:29;;;;;;;35.20;24.88;;;11.10;99.90;;;;;;20891639;28;20087;-51
2022/10/09 05:21:32;;;;;;;33.40;23.95;;;11.00;99.90;;;;;;20890831;28;20033;-50
2022/10/09 05:31:36;;;;;;;39.53;25.17;;;10.90;99.90;;;;;;20883599;28;20037;-57
2022/10/09 05:41:38;;;;;;;36.55;24.08;;;10.70;99.90;;;;;;20890416;28;20399;-52
2022/10/09 05:51:44;;;;;;;31.13;21.60;;;10.60;99.90;;;;;;20873756;28;20087;-52
2022/10/09 06:01:50;;;;;;;35.38;23.48;;;10.40;99.90;;;;;;20906501;28;20025;-49
2022/10/09 06:11:54;;;;;;;32.67;22.13;;;10.30;99.90;;;;;;20905585;28;20099;-51
2022/10/09 06:21:57;;;;;;;30.20;21.77;;;10.40;99.90;;;;;;20888104;28;20094;-48
2022/10/09 06:31:59;;;;;;;22.35;15.65;;;10.80;99.90;;;;;;20904231;28;20033;-50
2022/10/09 06:42:03;;;;;;;16.48;11.98;;;11.20;99.90;;;;;;20887536;28;20056;-50
2022/10/09 06:52:14;;;;;;;15.60;8.68;;;11.70;99.90;;;;;;20904491;28;20555;-51
2022/10/09 07:02:17;;;;;;;9.68;6.55;;;12.00;99.90;;;;;;20885509;28;20040;-57
2022/10/09 07:12:20;;;;;;;11.52;6.93;;;12.30;99.90;;;;;;20916589;28;20086;-53
2022/10/09 07:22:23;;;;;;;12.90;6.47;;;12.40;99.90;;;;;;20893107;28;20394;-53
2022/10/09 07:32:25;;;;;;;10.88;6.95;;;12.40;99.90;;;;;;20883350;28;20612;-60
2022/10/09 07:42:28;;;;;;;8.85;5.50;;;12.50;99.90;;;;;;20799799;28;20054;-52
2022/10/09 07:52:30;;;;;;;6.10;4.32;;;12.70;99.90;;;;;;20843137;28;20037;-52
2022/10/09 08:02:33;;;;;;;7.57;4.13;;;13.20;99.90;;;;;;20897266;28;20029;-51
2022/10/09 08:12:37;;;;;;;10.48;3.97;;;13.30;99.90;;;;;;20896996;28;20067;-56
2022/10/09 08:22:39;;;;;;;8.95;3.95;;;13.30;99.90;;;;;;20894630;28;20025;-53
2022/10/09 08:32:41;;;;;;;5.95;3.15;;;13.30;99.90;;;;;;20909681;28;20029;-51
2022/10/09 08:42:53;;;;;;;4.90;3.35;;;13.60;99.90;;;;;;20823726;28;20045;-52
2022/10/09 08:52:59;;;;;;;6.35;3.42;;;13.70;99.90;;;;;;20843964;28;20095;-53
2022/10/09 09:03:07;;;;;;;6.05;3.65;;;13.70;99.90;;;;;;20811016;28;20025;-54
2022/10/09 09:13:28;;;;;;;7.38;3.55;;;13.70;99.90;;;;;;20809283;28;20033;-50
2022/10/09 09:23:39;;;;;;;8.40;3.60;;;14.30;99.90;;;;;;20813156;28;20396;-54
2022/10/09 09:34:08;;;;;;;5.63;3.45;;;15.30;99.90;;;;;;20791445;28;20033;-60
2022/10/09 09:44:13;;;;;;;6.68;3.47;;;14.60;99.90;;;;;;20807653;28;20033;-60
2022/10/09 09:54:28;;;;;;;6.25;3.72;;;14.50;99.90;;;;;;20807151;28;20037;-53
2022/10/09 10:04:31;;;;;;;6.43;3.30;;;14.40;99.90;;;;;;20790862;28;20104;-52
2022/10/09 10:14:34;;;;;;;6.85;3.30;;;14.60;99.90;;;;;;20807371;28;20029;-61
2022/10/09 10:24:45;;;;;;;6.32;3.25;;;14.60;99.90;;;;;;20806798;28;20041;-53
2022/10/09 10:34:54;;;;;;;3.20;2.85;;;14.90;99.90;;;;;;20811688;28;20118;-52
2022/10/09 10:45:08;;;;;;;7.90;3.00;;;15.40;99.90;;;;;;20898089;28;20041;-60
2022/10/09 10:55:13;;;;;;;6.88;3.22;;;15.50;99.90;;;;;;20902556;28;20033;-53
2022/10/09 11:05:21;;;;;;;6.35;3.38;;;15.10;99.90;;;;;;20902539;28;20098;-62
2022/10/09 11:16:12;;;;;;;4.88;3.88;;;15.50;99.90;;;;;;20901047;28;20033;-53
2022/10/09 11:26:46;;;;;;;8.65;3.90;;;16.40;99.90;;;;;;20744290;28;20041;-47
2022/10/09 11:36:48;;;;;;;7.43;3.70;;;17.80;99.90;;;;;;20726809;28;20120;-50
2022/10/09 11:47:04;;;;;;;5.25;3.90;;;18.40;99.90;;;;;;20726838;28;20488;-50
2022/10/09 11:57:07;;;;;;;6.97;3.67;;;17.70;99.90;;;;;;20871501;28;20490;-50
2022/10/09 12:07:11;;;;;;;4.65;3.47;;;17.10;99.90;;;;;;20897194;28;20083;-52
2022/10/09 12:17:21;;;;;;;5.68;2.90;;;16.70;99.90;;;;;;20879652;28;20036;-60
2022/10/09 12:27:34;;;;;;;2.92;2.45;;;16.80;99.90;;;;;;20879863;28;20067;-51
2022/10/09 12:37:37;;;;;;;4.90;3.70;;;16.60;99.90;;;;;;20877989;28;20049;-52
2022/10/09 12:47:40;;;;;;;5.50;2.95;;;16.20;99.90;;;;;;20893952;28;20095;-59
2022/10/09 12:57:43;;;;;;;5.57;2.60;;;16.30;99.90;;;;;;20893024;28;20036;-48
2022/10/09 13:07:52;;;;;;;4.93;2.75;;;17.30;99.90;;;;;;20875502;28;20114;-53
2022/10/09 13:17:54;;;;;;;6.53;3.20;;;18.20;99.90;;;;;;20892471;28;20045;-49
2022/10/09 13:27:58;;;;;;;7.07;2.88;;;17.70;99.90;;;;;;20891367;28;20098;-52
2022/10/09 13:38:01;;;;;;;4.97;2.92;;;17.40;99.90;;;;;;20890939;28;20552;-51
2022/10/09 13:48:03;;;;;;;4.50;2.30;;;16.70;99.90;;;;;;20890345;28;20033;-48
2022/10/09 13:58:06;;;;;;;3.70;2.70;;;15.90;99.90;;;;;;20890140;28;20033;-47
2022/10/09 14:08:09;;;;;;;5.30;2.25;;;15.40;99.90;;;;;;20857026;28;20033;-58
2022/10/09 14:18:12;;;;;;;5.90;2.45;;;15.20;99.90;;;;;;20883186;28;20033;-50
2022/10/09 14:28:15;;;;;;;2.60;2.28;;;15.50;99.90;;;;;;20904577;28;20406;-53
2022/10/09 14:38:18;;;;;;;3.83;2.15;;;15.70;99.90;;;;;;20888571;28;20048;-50
2022/10/09 14:48:20;;;;;;;3.28;2.33;;;15.60;99.90;;;;;;20903623;28;20033;-59
2022/10/09 14:58:24;;;;;;;3.85;2.33;;;15.20;99.90;;;;;;20903082;28;20087;-49
2022/10/09 15:08:29;;;;;;;6.00;3.00;;;15.10;99.90;;;;;;20902533;28;20029;-52
2022/10/09 15:18:34;;;;;;;4.88;2.60;;;14.90;99.90;;;;;;20902219;28;20474;-50
2022/10/09 15:28:39;;;;;;;4.47;2.47;;;14.60;99.90;;;;;;20883669;28;20036;-49
2022/10/09 15:38:41;;;;;;;4.18;2.72;;;14.30;99.90;;;;;;20883554;28;20098;-58
2022/10/09 15:48:45;;;;;;;6.68;3.30;;;13.90;99.90;;;;;;20882627;28;20115;-58
2022/10/09 15:58:48;;;;;;;6.80;3.35;;;13.50;99.90;;;;;;20881232;28;20029;-58
2022/10/09 16:08:55;;;;;;;4.13;2.90;;;13.00;99.90;;;;;;20880341;28;20087;-57
2022/10/09 16:18:59;;;;;;;5.63;3.38;;;12.60;99.90;;;;;;20896441;28;20085;-51
2022/10/09 16:29:02;;;;;;;4.03;3.00;;;12.40;99.90;;;;;;20895444;28;20033;-51
2022/10/09 16:39:05;;;;;;;4.82;3.58;;;12.10;99.90;;;;;;20893662;28;20135;-58
2022/10/09 16:49:15;;;;;;;4.10;3.20;;;11.80;99.90;;;;;;20861549;28;20086;-57
2022/10/09 16:59:18;;;;;;;6.07;3.93;;;11.50;99.90;;;;;;20893057;28;20037;-52
2022/10/09 17:09:20;;;;;;;5.55;3.97;;;11.20;99.90;;;;;;20892810;28;20035;-56
2022/10/09 17:19:23;;;;;;;5.63;4.28;;;10.80;99.90;;;;;;20891198;28;20087;-60
2022/10/09 17:29:26;;;;;;;7.60;4.85;;;10.40;99.90;;;;;;20891528;28;20095;-52
2022/10/09 17:39:29;;;;;;;7.45;5.00;;;10.10;99.90;;;;;;20890192;28;20053;-53
2022/10/09 17:49:31;;;;;;;7.82;5.03;;;9.80;99.90;;;;;;20895759;28;20040;-59
2022/10/09 17:59:34;;;;;;;7.88;5.22;;;9.60;99.90;;;;;;20902154;28;20037;-55
2022/10/09 18:09:37;;;;;;;9.30;5.03;;;9.40;99.90;;;;;;20916626;28;20033;-52
2022/10/09 18:19:39;;;;;;;10.98;5.18;;;9.30;99.90;;;;;;20916449;28;20079;-53
2022/10/09 18:29:43;;;;;;;8.70;4.85;;;9.30;99.90;;;;;;20916590;28;20063;-59
2022/10/09 18:39:47;;;;;;;7.75;4.97;;;9.30;99.90;;;;;;20916143;28;20080;-59
2022/10/09 18:49:51;;;;;;;7.72;5.35;;;9.30;99.90;;;;;;20900687;28;20411;-53
2022/10/09 18:59:57;;;;;;;10.57;8.60;;;9.10;99.90;;;;;;20912868;28;20033;-50
2022/10/09 19:10:01;;;;;;;8.50;4.68;;;9.00;99.90;;;;;;20901302;28;20033;-50
2022/10/09 19:20:04;;;;;;;8.05;5.40;;;9.00;99.90;;;;;;20917517;28;20040;-60
2022/10/09 19:30:09;;;;;;;7.97;5.07;;;9.10;99.90;;;;;;20901238;28;20040;-53
2022/10/09 19:40:12;;;;;;;6.43;4.65;;;9.20;99.90;;;;;;20899509;28;20049;-53
2022/10/09 19:50:14;;;;;;;7.82;4.70;;;9.20;99.90;;;;;;20899644;28;20094;-52
2022/10/09 20:00:17;;;;;;;7.38;4.72;;;9.20;99.90;;;;;;20881904;28;20037;-53
2022/10/09 20:10:20;;;;;;;6.78;4.50;;;9.20;99.90;;;;;;20897449;28;20041;-59
2022/10/09 20:20:25;;;;;;;6.07;4.55;;;9.20;99.90;;;;;;20897127;28;20082;-53
2022/10/09 20:30:30;;;;;;;6.70;4.63;;;9.00;99.90;;;;;;20896900;28;20118;-51
2022/10/09 20:40:33;;;;;;;8.10;4.63;;;8.90;99.90;;;;;;20894246;28;20044;-53
2022/10/09 20:50:40;;;;;;;7.15;4.97;;;8.80;99.90;;;;;;20893528;28;20041;-54
2022/10/09 21:00:43;;;;;;;10.02;5.80;;;8.70;99.90;;;;;;20876183;28;20033;-53
2022/10/09 21:10:48;;;;;;;6.15;4.55;;;8.60;99.90;;;;;;20875600;28;20082;-59
2022/10/09 21:20:51;;;;;;;7.57;4.70;;;8.50;99.90;;;;;;20890853;28;20037;-54
2022/10/09 21:30:54;;;;;;;7.28;5.03;;;8.70;99.90;;;;;;20891592;28;20420;-52
2022/10/09 21:40:57;;;;;;;7.20;4.90;;;8.90;99.90;;;;;;20891100;28;20041;-51
2022/10/09 21:50:59;;;;;;;13.80;4.93;;;8.80;99.90;;;;;;20890092;28;20441;-59
2022/10/09 22:01:03;;;;;;;7.45;4.40;;;8.70;99.90;;;;;;20873898;28;20033;-55
2022/10/09 22:11:07;;;;;;;10.55;5.10;;;8.80;99.90;;;;;;20906397;28;20312;-59
2022/10/09 22:21:13;;;;;;;8.38;4.45;;;8.90;99.90;;;;;;20889260;28;20087;-50
2022/10/09 22:31:23;;;;;;;8.48;4.50;;;9.10;99.90;;;;;;20889364;28;20098;-54
2022/10/09 22:41:27;;;;;;;6.03;3.95;;;9.00;99.90;;;;;;20915916;28;20053;-60
2022/10/09 22:51:30;;;;;;;8.77;3.80;;;8.90;99.90;;;;;;20903496;28;20037;-52
2022/10/09 23:01:36;;;;;;;10.00;3.58;;;8.80;99.90;;;;;;20886443;28;20099;-52
2022/10/09 23:11:38;;;;;;;5.78;3.50;;;8.80;99.90;;;;;;20902860;28;20037;-54
2022/10/09 23:21:42;;;;;;;5.75;3.30;;;8.80;99.90;;;;;;20894025;28;20372;-54
2022/10/09 23:31:47;;;;;;;4.43;3.30;;;8.90;99.90;;;;;;20900302;28;20556;-49
2022/10/09 23:41:50;;;;;;;6.07;3.42;;;9.10;99.90;;;;;;20866750;28;20468;-53
2022/10/09 23:51:55;;;;;;;5.53;3.03;;;9.10;99.90;;;;;;20898307;28;20053;-54
